Time;durP1;ratioP1;P1;durP2;ratioP2;P2;SDS_P1;SDS_P2;PMS_P1;PMS_P2;Temp;Humidity;BMP_temperature;BMP_pressure;BME280_temperature;BME280_humidity;BME280_pressure;Samples;Min_cycle;Max_cycle;Signal;HPM_P1;HPM_P2
2023/05/01 00:00:23;;;;;;;7.97;2.13;;;;;;;12.38;88.27;101025.88;4989533;28;20054;-45
2023/05/01 00:02:50;;;;;;;4.55;2.20;;;;;;;12.36;88.39;101037.34;4989874;28;20058;-44
2023/05/01 00:05:17;;;;;;;4.80;2.17;;;;;;;12.37;88.82;101029.78;4989292;28;20198;-45
2023/05/01 00:07:43;;;;;;;2.70;1.58;;;;;;;12.35;88.90;101037.66;4987267;28;20050;-44
2023/05/01 00:10:10;;;;;;;2.67;2.08;;;;;;;12.36;88.84;101034.56;4987685;28;20041;-44
2023/05/01 00:12:37;;;;;;;1.92;1.60;;;;;;;12.37;89.17;101030.59;4990172;28;20382;-45
2023/05/01 00:15:04;;;;;;;2.78;1.75;;;;;;;12.38;89.24;101031.41;4989207;28;20081;-44
2023/05/01 00:17:31;;;;;;;2.00;1.30;;;;;;;12.36;89.43;101040.13;4989885;28;20065;-44
2023/05/01 00:19:58;;;;;;;2.03;1.55;;;;;;;12.38;89.45;101031.41;4989795;28;20050;-44
2023/05/01 00:22:25;;;;;;;3.25;1.38;;;;;;;12.41;89.19;101037.09;4987508;28;20097;-47
2023/05/01 00:24:52;;;;;;;1.88;1.67;;;;;;;12.40;89.38;101029.91;4989428;28;20408;-45
2023/05/01 00:27:19;;;;;;;5.03;1.65;;;;;;;12.36;89.51;101034.56;4989692;28;20141;-44
2023/05/01 00:29:45;;;;;;;5.03;1.60;;;;;;;12.36;89.54;101028.19;4989161;28;20045;-44
2023/05/01 00:32:14;;;;;;;1.95;1.08;;;;;;;12.37;89.65;101022.28;4988252;28;20081;-44
2023/05/01 00:34:44;;;;;;;1.25;1.15;;;;;;;12.35;89.56;101037.66;4984004;28;20046;-44
2023/05/01 00:37:11;;;;;;;2.33;1.10;;;;;;;12.36;89.56;101017.91;4985504;28;20519;-44
2023/05/01 00:39:38;;;;;;;2.25;0.70;;;;;;;12.33;89.47;101026.94;4988853;28;20070;-44
2023/05/01 00:42:05;;;;;;;1.52;0.63;;;;;;;12.31;89.56;101020.13;4989100;28;20397;-48
2023/05/01 00:44:32;;;;;;;3.58;1.00;;;;;;;12.29;89.75;101016.84;4988917;28;20061;-45
2023/05/01 00:47:01;;;;;;;0.88;0.60;;;;;;;12.24;89.62;101029.00;4988895;28;20386;-44
2023/05/01 00:49:27;;;;;;;1.27;1.13;;;;;;;12.20;89.54;101028.09;4989088;28;20048;-44
2023/05/01 00:51:54;;;;;;;0.88;0.88;;;;;;;12.12;89.46;101027.09;4987885;28;20506;-44
2023/05/01 00:54:24;;;;;;;2.97;0.70;;;;;;;12.09;89.54;101035.28;4979784;28;20046;-45
2023/05/01 00:56:51;;;;;;;0.85;0.40;;;;;;;12.05;89.59;101042.69;4988909;28;20640;-44
2023/05/01 00:59:18;;;;;;;2.08;0.57;;;;;;;12.04;89.61;101039.13;4988982;28;20057;-44
2023/05/01 01:01:45;;;;;;;1.75;0.63;;;;;;;12.05;89.61;101028.81;4988784;28;20162;-48
2023/05/01 01:04:12;;;;;;;1.58;0.40;;;;;;;12.03;89.69;101031.94;4989191;28;20034;-44
2023/05/01 01:07:06;;;;;;;1.10;0.85;;;;;;;12.02;89.75;101026.75;4988686;28;20568;-46
2023/05/01 01:09:41;;;;;;;1.33;0.63;;;;;;;12.04;89.50;101033.56;4988793;28;20069;-44
2023/05/01 01:12:26;;;;;;;2.75;1.00;;;;;;;12.00;89.39;101026.25;4989011;28;20058;-44
2023/05/01 01:15:08;;;;;;;2.58;1.10;;;;;;;11.93;89.50;101026.03;4988704;28;20057;-44
2023/05/01 01:17:45;;;;;;;1.77;1.13;;;;;;;11.87;89.69;101024.66;4989605;28;20061;-47
2023/05/01 01:20:36;;;;;;;1.42;1.05;;;;;;;11.86;89.42;101026.59;4981439;28;20065;-50
2023/05/01 01:23:34;;;;;;;2.47;1.10;;;;;;;11.80;89.40;101029.97;4992640;28;20053;-44
2023/05/01 01:26:12;;;;;;;9.93;3.47;;;;;;;11.75;89.40;101030.22;4992803;28;20687;-48
2023/05/01 01:29:03;;;;;;;1.70;1.08;;;;;;;11.72;89.58;101033.66;4992801;28;20050;-45
2023/05/01 01:31:56;;;;;;;0.85;0.85;;;;;;;11.67;89.78;101031.09;4989909;28;20432;-45
2023/05/01 01:34:32;;;;;;;2.97;1.00;;;;;;;11.69;89.78;101031.59;4992946;28;20047;-45
2023/05/01 01:37:19;;;;;;;1.15;0.98;;;;;;;11.70;89.83;101027.66;4993149;28;20317;-50
2023/05/01 01:39:54;;;;;;;0.98;0.60;;;;;;;11.76;90.00;101029.03;4991632;28;20157;-46
2023/05/01 01:42:26;;;;;;;1.38;0.82;;;;;;;11.79;90.08;101028.34;4990342;28;20046;-46
2023/05/01 01:45:03;;;;;;;0.70;0.60;;;;;;;11.74;89.97;101025.81;4973130;28;20043;-46
2023/05/01 01:47:32;;;;;;;2.05;1.10;;;;;;;11.75;90.33;101025.47;4991164;28;20134;-45
2023/05/01 01:50:03;;;;;;;6.03;0.90;;;;;;;11.77;90.30;101027.88;4987984;28;20039;-48
2023/05/01 01:52:32;;;;;;;4.23;1.17;;;;;;;11.78;90.43;101024.75;4991114;28;20078;-47
2023/05/01 01:55:05;;;;;;;1.88;1.00;;;;;;;11.83;90.62;101020.97;4989811;28;20308;-45
2023/05/01 01:57:33;;;;;;;3.50;1.05;;;;;;;11.82;90.74;101017.38;4990772;28;21039;-44
2023/05/01 02:00:00;;;;;;;2.53;1.35;;;;;;;11.82;90.91;101017.38;4992301;28;20058;-45
2023/05/01 02:02:29;;;;;;;3.70;1.50;;;;;;;11.84;91.05;101017.81;4991112;28;20050;-44
2023/05/01 02:04:58;;;;;;;4.55;2.00;;;;;;;11.87;91.05;101016.31;4983345;28;20038;-44
2023/05/01 02:07:27;;;;;;;6.72;1.63;;;;;;;11.87;91.08;101016.31;4987416;28;20046;-45
2023/05/01 02:09:55;;;;;;;4.28;2.13;;;;;;;11.90;91.28;101015.63;4990096;28;20137;-47
2023/05/01 02:12:25;;;;;;;3.85;2.40;;;;;;;11.90;91.30;101004.53;4988374;28;20046;-47
2023/05/01 02:14:53;;;;;;;4.72;1.73;;;;;;;11.86;91.30;101003.63;4991427;28;20081;-44
2023/05/01 02:17:20;;;;;;;3.80;1.50;;;;;;;11.82;91.38;100997.16;4990570;28;20049;-44
2023/05/01 02:19:51;;;;;;;1.92;1.58;;;;;;;11.84;91.53;101006.72;4988733;28;20046;-44
2023/05/01 02:22:21;;;;;;;3.45;1.73;;;;;;;11.85;91.49;101013.09;4990249;28;20050;-47
2023/05/01 02:24:48;;;;;;;4.82;1.52;;;;;;;11.84;91.73;101012.28;4979067;28;20412;-46
2023/05/01 02:27:20;;;;;;;2.58;2.05;;;;;;;11.82;91.70;101006.28;4990030;28;20141;-45
2023/05/01 02:29:47;;;;;;;6.65;1.92;;;;;;;11.82;91.96;101009.06;4992425;28;20112;-46
2023/05/01 02:32:13;;;;;;;7.22;2.15;;;;;;;11.83;91.90;101007.09;4996074;28;20045;-44
2023/05/01 02:34:40;;;;;;;4.03;2.08;;;;;;;11.84;92.04;101011.47;4988400;28;20046;-44
2023/05/01 02:37:10;;;;;;;5.85;3.42;;;;;;;11.80;92.30;101016.09;4987769;28;20386;-45
2023/05/01 02:39:38;;;;;;;11.57;4.40;;;;;;;11.75;92.11;101008.84;4973011;28;20046;-45
2023/05/01 02:42:08;;;;;;;6.80;2.83;;;;;;;11.73;92.16;101011.13;4990678;28;20046;-44
2023/05/01 02:44:40;;;;;;;10.35;3.40;;;;;;;11.72;92.37;100998.44;4992846;28;20038;-46
2023/05/01 02:47:09;;;;;;;5.47;2.40;;;;;;;11.73;92.46;101000.03;4984556;28;20179;-46
2023/05/01 02:49:37;;;;;;;5.38;2.33;;;;;;;11.73;92.52;101013.13;4983775;28;20050;-48
2023/05/01 02:52:04;;;;;;;5.70;2.22;;;;;;;11.73;92.52;101005.56;4965197;28;20050;-45
2023/05/01 02:54:31;;;;;;;4.78;2.20;;;;;;;11.71;92.56;101002.34;4961593;28;20523;-44
2023/05/01 02:56:58;;;;;;;9.60;2.95;;;;;;;11.71;92.74;101002.34;4988800;28;20085;-44
2023/05/01 02:59:28;;;;;;;6.53;3.00;;;;;;;11.69;92.83;101010.22;4990929;28;20054;-44
2023/05/01 03:01:55;;;;;;;7.07;2.72;;;;;;;11.64;92.74;101010.41;5042002;23;20437;-44
2023/05/01 03:04:22;;;;;;;6.78;2.97;;;;;;;11.59;93.06;101008.69;5005796;28;20121;-44
2023/05/01 03:06:49;;;;;;;3.17;2.35;;;;;;;11.55;93.08;101012.47;5006920;28;20145;-45
2023/05/01 03:09:16;;;;;;;3.20;2.13;;;;;;;11.51;93.33;101009.59;4991863;28;20309;-52
2023/05/01 03:11:42;;;;;;;8.68;2.50;;;;;;;11.54;93.37;101008.88;5002565;28;20041;-44
2023/05/01 03:14:10;;;;;;;3.65;2.13;;;;;;;11.58;93.53;101015.38;5010353;28;20048;-44
2023/05/01 03:16:36;;;;;;;3.88;2.30;;;;;;;11.63;93.71;101009.59;5015044;28;20049;-45
2023/05/01 03:19:04;;;;;;;7.25;2.20;;;;;;;11.65;93.85;101009.22;5010051;28;20096;-44
2023/05/01 03:21:32;;;;;;;6.03;2.90;;;;;;;11.65;93.80;101002.91;5007503;28;20138;-45
2023/05/01 03:23:59;;;;;;;3.88;1.90;;;;;;;11.68;93.90;101007.72;5008556;28;20038;-48
2023/05/01 03:26:26;;;;;;;4.53;1.80;;;;;;;11.67;93.67;101006.13;5010242;28;20065;-44
2023/05/01 03:28:53;;;;;;;4.78;1.80;;;;;;;11.66;94.01;101004.50;5008772;28;20046;-45
2023/05/01 03:31:20;;;;;;;6.65;2.22;;;;;;;11.69;93.97;101001.06;5008194;28;20048;-44
2023/05/01 03:33:47;;;;;;;4.05;3.03;;;;;;;11.73;94.26;101002.81;5008013;28;20042;-44
2023/05/01 03:36:14;;;;;;;5.65;2.05;;;;;;;11.74;94.22;101003.63;4988307;28;20627;-44
2023/05/01 03:38:41;;;;;;;8.88;2.42;;;;;;;11.76;94.46;100999.34;5007582;28;20042;-46
2023/05/01 03:41:08;;;;;;;5.60;2.58;;;;;;;11.80;94.53;101011.38;5008589;28;20133;-47
2023/05/01 03:43:35;;;;;;;7.35;2.00;;;;;;;11.80;94.40;101007.78;5009953;28;20053;-44
2023/05/01 03:46:01;;;;;;;6.50;2.60;;;;;;;11.77;94.75;101011.25;5009729;28;20137;-44
2023/05/01 03:48:28;;;;;;;5.10;1.70;;;;;;;11.79;94.82;101011.69;5009416;28;20442;-43
2023/05/01 03:50:56;;;;;;;7.90;1.95;;;;;;;11.79;94.75;101022.78;5010180;28;20046;-44
2023/05/01 03:53:23;;;;;;;3.72;2.33;;;;;;;11.79;94.93;101011.69;5009668;28;20037;-43
2023/05/01 03:55:50;;;;;;;4.82;2.40;;;;;;;11.80;94.99;101021.66;5009579;28;20057;-43
2023/05/01 03:58:17;;;;;;;3.45;2.40;;;;;;;11.78;95.14;101015.66;5009435;28;20046;-43
2023/05/01 04:00:43;;;;;;;3.95;2.28;;;;;;;11.74;95.36;101020.25;5008982;28;20125;-44
2023/05/01 04:03:10;;;;;;;2.22;1.73;;;;;;;11.75;95.58;101025.47;5010092;28;20042;-48
2023/05/01 04:05:37;;;;;;;6.07;2.30;;;;;;;11.75;95.78;101030.22;5010074;28;20439;-44
2023/05/01 04:08:04;;;;;;;4.50;2.20;;;;;;;11.75;95.84;101032.97;5009829;28;20096;-44
2023/05/01 04:10:30;;;;;;;7.25;2.20;;;;;;;11.72;96.10;101036.44;5007940;28;20065;-44
2023/05/01 04:13:07;;;;;;;3.92;2.00;;;;;;;11.72;96.23;101036.44;5006005;28;20050;-45
2023/05/01 04:15:34;;;;;;;2.40;1.67;;;;;;;11.74;96.22;101042.44;5008310;28;20041;-51
2023/05/01 04:18:01;;;;;;;3.90;2.50;;;;;;;11.75;96.30;101042.13;5007874;28;20409;-44
2023/05/01 04:20:27;;;;;;;1.70;1.35;;;;;;;11.75;96.32;101047.66;5008135;28;20053;-44
2023/05/01 04:22:54;;;;;;;4.38;1.35;;;;;;;11.74;96.38;101050.75;4991176;28;20057;-45
2023/05/01 04:25:21;;;;;;;3.60;1.33;;;;;;;11.76;96.57;101054.00;5009344;28;20519;-47
2023/05/01 04:27:47;;;;;;;3.45;1.40;;;;;;;11.75;96.46;101050.44;5009136;28;20042;-43
2023/05/01 04:30:14;;;;;;;2.13;1.30;;;;;;;11.72;96.30;101048.34;5007962;28;20220;-49
2023/05/01 04:32:41;;;;;;;2.58;1.85;;;;;;;11.70;96.62;101059.00;5008682;28;20058;-43
2023/05/01 04:35:09;;;;;;;2.67;1.60;;;;;;;11.71;96.83;101057.00;5007865;28;20052;-43
2023/05/01 04:37:36;;;;;;;2.95;1.05;;;;;;;11.70;96.79;101058.19;5007441;28;20038;-44
2023/05/01 04:40:03;;;;;;;2.60;1.00;;;;;;;11.67;96.69;101061.59;5006664;28;20053;-45
2023/05/01 04:42:31;;;;;;;1.20;1.10;;;;;;;11.67;96.73;101061.59;5004643;28;20043;-43
2023/05/01 04:45:01;;;;;;;3.03;0.80;;;;;;;11.64;96.73;101068.66;5007197;28;20146;-45
2023/05/01 04:47:28;;;;;;;1.38;0.68;;;;;;;11.67;96.76;101064.38;5007582;28;20365;-44
2023/05/01 04:49:55;;;;;;;0.90;0.65;;;;;;;11.69;96.68;101067.63;5006572;28;20041;-43
2023/05/01 04:52:22;;;;;;;1.48;0.90;;;;;;;11.71;96.82;101084.75;5006613;28;20038;-44
2023/05/01 04:54:49;;;;;;;1.10;0.80;;;;;;;11.71;96.65;101076.41;5007615;28;20046;-46
2023/05/01 04:57:16;;;;;;;1.48;1.05;;;;;;;11.73;96.73;101074.13;5006917;28;20049;-43
2023/05/01 04:59:42;;;;;;;3.72;1.00;;;;;;;11.72;96.73;101075.28;5007586;28;20037;-43
2023/05/01 05:02:09;;;;;;;2.80;1.58;;;;;;;11.72;96.62;101081.63;4989180;28;20054;-44
2023/05/01 05:04:36;;;;;;;3.35;1.58;;;;;;;11.74;96.58;101084.06;5004334;28;20491;-44
2023/05/01 05:07:02;;;;;;;1.05;0.95;;;;;;;11.71;96.88;101080.00;5007765;28;20077;-46
2023/05/01 05:09:29;;;;;;;2.45;1.17;;;;;;;11.73;96.83;101088.00;5006004;28;20042;-43
2023/05/01 05:11:55;;;;;;;1.35;1.08;;;;;;;11.72;96.77;101097.47;5007248;28;20042;-46
2023/05/01 05:14:22;;;;;;;1.55;1.25;;;;;;;11.71;96.92;101096.66;5007875;28;20041;-45
2023/05/01 05:16:49;;;;;;;3.33;0.88;;;;;;;11.72;97.01;101094.69;5007110;28;20056;-44
2023/05/01 05:19:16;;;;;;;3.05;0.93;;;;;;;11.69;96.88;101098.16;5006892;28;20111;-43
2023/05/01 05:21:43;;;;;;;2.88;0.80;;;;;;;11.68;96.91;101096.47;5007593;28;20053;-44
2023/05/01 05:24:09;;;;;;;5.40;1.10;;;;;;;11.70;96.98;101086.72;5005894;28;20431;-46
2023/05/01 05:26:36;;;;;;;2.15;0.90;;;;;;;11.73;97.09;101090.78;5006883;28;20038;-43
2023/05/01 05:29:03;;;;;;;3.75;1.38;;;;;;;11.74;96.88;101089.59;5007678;28;20491;-50
2023/05/01 05:31:30;;;;;;;1.52;1.42;;;;;;;11.76;96.95;101085.31;5006278;28;20495;-45
2023/05/01 05:33:57;;;;;;;1.80;0.90;;;;;;;11.80;96.88;101082.69;5008412;28;20057;-45
2023/05/01 05:36:26;;;;;;;1.50;1.00;;;;;;;11.80;96.97;101086.28;5007374;28;20063;-43
2023/05/01 05:38:53;;;;;;;1.52;1.17;;;;;;;11.84;96.91;101092.72;5004804;28;20498;-44
2023/05/01 05:41:20;;;;;;;0.57;0.50;;;;;;;11.89;96.71;101092.50;5009022;28;20046;-46
2023/05/01 05:43:47;;;;;;;1.05;0.90;;;;;;;11.91;96.58;101095.75;5009081;28;20129;-44
2023/05/01 05:46:13;;;;;;;1.15;0.77;;;;;;;11.93;96.58;101089.84;5008695;28;20058;-43
2023/05/01 05:48:40;;;;;;;2.00;1.10;;;;;;;11.96;96.68;101097.50;5008329;28;20034;-43
2023/05/01 05:51:07;;;;;;;1.85;0.60;;;;;;;11.97;96.54;101093.53;5008367;28;20056;-47
2023/05/01 05:53:33;;;;;;;1.20;0.73;;;;;;;11.98;96.63;101095.19;5008525;28;20046;-44
2023/05/01 05:56:00;;;;;;;1.30;0.60;;;;;;;12.02;96.60;101096.13;5007047;28;20471;-44
2023/05/01 05:58:27;;;;;;;0.95;0.75;;;;;;;12.04;96.55;101100.16;5006401;28;20061;-43
2023/05/01 06:00:56;;;;;;;3.00;1.13;;;;;;;12.07;96.52;101104.22;5005387;28;20145;-45
2023/05/01 06:03:23;;;;;;;3.20;1.05;;;;;;;12.03;96.54;101103.28;5007609;28;20053;-45
2023/05/01 06:05:50;;;;;;;1.45;1.00;;;;;;;12.04;96.36;101107.69;5010902;28;20042;-46
2023/05/01 06:08:17;;;;;;;2.97;0.70;;;;;;;12.08;96.55;101112.19;5006559;28;20565;-44
2023/05/01 06:10:44;;;;;;;4.90;1.10;;;;;;;12.08;96.35;101112.19;5010594;28;20050;-44
2023/05/01 06:13:12;;;;;;;1.73;0.90;;;;;;;12.10;96.50;101120.16;5005536;28;20487;-44
2023/05/01 06:15:42;;;;;;;2.40;1.27;;;;;;;12.09;96.41;101130.47;5011600;28;20049;-44
2023/05/01 06:18:10;;;;;;;2.17;0.88;;;;;;;12.10;96.35;101120.16;5008560;28;20591;-44
2023/05/01 06:20:37;;;;;;;1.52;0.68;;;;;;;12.09;96.60;101124.09;4991369;28;20079;-44
2023/05/01 06:23:04;;;;;;;0.80;0.80;;;;;;;12.11;96.58;101128.16;5009443;28;20129;-44
2023/05/01 06:25:31;;;;;;;0.80;0.70;;;;;;;12.11;96.68;101128.16;5008043;28;20038;-44
2023/05/01 06:27:57;;;;;;;4.25;1.77;;;;;;;12.11;96.84;101132.88;5001015;28;20038;-45
2023/05/01 06:30:24;;;;;;;0.70;0.65;;;;;;;12.07;96.70;101138.31;5008391;28;20543;-44
2023/05/01 06:32:51;;;;;;;0.65;0.47;;;;;;;12.06;96.69;101141.44;5009730;28;20527;-46
2023/05/01 06:35:18;;;;;;;1.00;0.57;;;;;;;12.03;96.83;101147.66;5009560;28;20041;-47
2023/05/01 06:37:45;;;;;;;1.70;0.57;;;;;;;12.02;96.57;101149.63;5010637;28;20056;-45
2023/05/01 06:40:11;;;;;;;0.73;0.65;;;;;;;12.01;96.78;101148.03;5011408;28;20044;-45
2023/05/01 06:42:40;;;;;;;2.92;0.40;;;;;;;12.00;97.00;101148.34;5010309;28;20395;-44
2023/05/01 06:45:07;;;;;;;0.50;0.38;;;;;;;12.01;96.87;101141.66;5012976;28;20482;-46
2023/05/01 06:47:35;;;;;;;0.80;0.50;;;;;;;12.03;96.80;101153.22;5011284;28;20050;-44
2023/05/01 06:50:03;;;;;;;1.50;0.52;;;;;;;12.05;96.89;101148.13;4992911;28;20509;-45
2023/05/01 06:52:32;;;;;;;1.23;0.55;;;;;;;12.07;96.72;101159.72;5003767;28;20402;-44
2023/05/01 06:55:00;;;;;;;3.20;0.50;;;;;;;12.09;96.88;101155.44;4994561;28;20052;-44
2023/05/01 06:57:26;;;;;;;0.47;0.47;;;;;;;12.14;96.84;101165.50;5017999;28;20060;-44
2023/05/01 06:59:54;;;;;;;0.68;0.30;;;;;;;12.15;96.78;101158.81;5010294;28;20054;-47
2023/05/01 07:02:21;;;;;;;2.00;0.50;;;;;;;12.16;96.51;101164.00;5010973;28;20149;-44
2023/05/01 07:04:48;;;;;;;0.98;0.60;;;;;;;12.18;96.51;101172.78;4993171;28;20077;-44
2023/05/01 07:07:19;;;;;;;1.50;0.60;;;;;;;12.23;96.71;101173.72;5010464;28;20403;-49
2023/05/01 07:09:46;;;;;;;1.13;0.77;;;;;;;12.29;96.50;101170.34;5010537;28;20073;-47
2023/05/01 07:12:13;;;;;;;1.63;0.63;;;;;;;12.29;96.30;101170.34;5010600;28;20068;-44
2023/05/01 07:14:40;;;;;;;2.08;0.40;;;;;;;12.32;96.41;101171.63;5010123;28;20069;-44
2023/05/01 07:17:08;;;;;;;1.75;0.57;;;;;;;12.39;96.45;101172.66;4992868;28;20502;-44
2023/05/01 07:19:34;;;;;;;2.90;0.85;;;;;;;12.48;96.43;101181.72;4993045;28;20136;-45
2023/05/01 07:22:03;;;;;;;1.25;0.70;;;;;;;12.60;96.02;101173.34;5010486;28;20446;-45
2023/05/01 07:24:30;;;;;;;0.63;0.32;;;;;;;12.76;96.02;101179.03;5010149;28;20445;-45
2023/05/01 07:26:57;;;;;;;1.05;0.50;;;;;;;12.92;95.60;101177.13;5010287;28;20038;-46
2023/05/01 07:29:24;;;;;;;1.15;0.50;;;;;;;13.01;95.25;101182.56;5004393;28;20566;-45
2023/05/01 07:31:50;;;;;;;0.70;0.70;;;;;;;13.04;95.25;101181.88;5006497;28;20133;-50
2023/05/01 07:34:18;;;;;;;1.95;0.40;;;;;;;13.06;94.81;101185.91;5007645;28;20088;-49
2023/05/01 07:36:45;;;;;;;2.47;0.60;;;;;;;13.14;95.20;101195.31;4998965;28;20050;-46
2023/05/01 07:39:13;;;;;;;0.57;0.50;;;;;;;13.16;94.90;101191.00;4999471;28;20135;-45
2023/05/01 07:41:40;;;;;;;2.83;0.93;;;;;;;13.15;94.50;101194.97;5008902;28;20058;-47
2023/05/01 07:44:06;;;;;;;1.48;0.50;;;;;;;13.15;94.46;101196.94;5008447;28;20058;-51
2023/05/01 07:46:35;;;;;;;1.00;0.47;;;;;;;13.17;94.68;101197.38;5007398;28;20054;-48
2023/05/01 07:49:03;;;;;;;1.52;0.60;;;;;;;13.24;94.64;101192.03;5010669;28;20045;-48
2023/05/01 07:51:30;;;;;;;1.25;0.40;;;;;;;13.40;95.21;101202.06;5008321;28;20041;-47
2023/05/01 07:53:56;;;;;;;1.30;0.57;;;;;;;13.58;95.40;101199.78;4990054;28;20060;-45
2023/05/01 07:56:23;;;;;;;0.55;0.47;;;;;;;13.73;95.33;101199.03;5019404;28;20107;-50
2023/05/01 07:58:50;;;;;;;0.57;0.45;;;;;;;13.84;95.04;101202.94;4991873;28;20081;-48
2023/05/01 08:01:17;;;;;;;0.85;0.40;;;;;;;13.99;95.76;101207.72;5009052;28;20104;-49
2023/05/01 08:03:43;;;;;;;9.85;2.65;;;;;;;14.17;95.83;101207.34;4996391;28;20045;-45
2023/05/01 08:06:10;;;;;;;0.88;0.68;;;;;;;14.31;95.69;101208.56;5009158;28;20830;-45
2023/05/01 08:08:37;;;;;;;0.90;0.50;;;;;;;14.55;96.97;101207.56;5009585;28;20052;-46
2023/05/01 08:11:04;;;;;;;5.68;0.85;;;;;;;14.76;96.77;101213.66;5009278;28;20041;-45
2023/05/01 08:13:31;;;;;;;1.00;0.50;;;;;;;14.83;95.75;101213.00;5008164;28;20045;-48
2023/05/01 08:16:02;;;;;;;0.63;0.30;;;;;;;14.79;94.98;101218.53;5007891;28;20045;-46
2023/05/01 08:18:29;;;;;;;3.50;0.77;;;;;;;14.92;96.30;101222.81;5009644;28;20451;-45
2023/05/01 08:20:56;;;;;;;2.20;0.68;;;;;;;15.49;96.75;101207.38;5008407;28;20385;-49
2023/05/01 08:23:24;;;;;;;3.35;0.50;;;;;;;16.15;95.80;101218.22;5008397;28;20050;-45
2023/05/01 08:25:51;;;;;;;1.85;0.40;;;;;;;16.76;92.80;101213.31;5008464;28;20138;-47
2023/05/01 08:28:21;;;;;;;1.80;0.45;;;;;;;17.10;90.75;101221.81;5006893;28;20042;-47
2023/05/01 08:30:48;;;;;;;1.58;0.40;;;;;;;17.81;88.41;101224.38;5011480;28;20042;-50
2023/05/01 08:33:15;;;;;;;2.35;0.35;;;;;;;18.18;84.94;101230.00;4986068;28;20049;-49
2023/05/01 08:35:42;;;;;;;0.70;0.50;;;;;;;17.90;81.93;101246.47;5007520;28;20447;-47
2023/05/01 08:38:10;;;;;;;1.52;0.60;;;;;;;17.43;80.80;101233.88;5008525;28;20077;-46
2023/05/01 08:40:37;;;;;;;2.80;0.38;;;;;;;17.00;79.54;101238.06;5008940;28;20132;-47
2023/05/01 08:43:04;;;;;;;1.00;0.63;;;;;;;17.03;79.50;101242.09;5002536;28;20058;-49
2023/05/01 08:45:36;;;;;;;0.95;0.38;;;;;;;16.90;77.67;101243.47;5007814;28;20034;-49
2023/05/01 08:48:06;;;;;;;;;;;;;;;16.71;79.09;101238.78;5007613;28;20042;-45
2023/05/01 08:50:35;;;;;;;0.70;0.28;;;;;;;16.68;77.01;101249.94;5008335;28;19925;-45
2023/05/01 08:53:03;;;;;;;0.30;0.30;;;;;;;16.60;76.00;101251.78;5002663;28;20057;-47
2023/05/01 08:55:31;;;;;;;4.78;0.50;;;;;;;16.38;75.26;101247.81;5008088;28;20044;-50
2023/05/01 08:57:58;;;;;;;2.17;0.40;;;;;;;16.24;75.03;101253.13;5003880;28;20131;-48
2023/05/01 09:00:26;;;;;;;0.70;0.20;;;;;;;16.21;74.56;101251.06;5007666;28;20034;-45
2023/05/01 09:02:54;;;;;;;1.30;0.40;;;;;;;16.15;74.34;101254.56;5013536;28;20425;-46
2023/05/01 09:05:22;;;;;;;0.90;0.17;;;;;;;16.06;74.43;101253.97;5002127;28;20096;-46
2023/05/01 09:07:49;;;;;;;4.07;0.65;;;;;;;16.31;74.08;101246.84;5003158;28;20057;-46
2023/05/01 09:10:17;;;;;;;0.73;0.30;;;;;;;16.69;73.15;101248.75;5006736;28;20045;-49
2023/05/01 09:12:48;;;;;;;0.40;0.40;;;;;;;17.52;71.59;101262.41;5007182;28;20042;-47
2023/05/01 09:15:15;;;;;;;1.92;0.30;;;;;;;17.52;70.72;101259.59;5004289;28;20045;-46
2023/05/01 09:17:43;;;;;;;1.02;0.77;;;;;;;17.16;70.50;101257.47;5015574;28;20128;-46
2023/05/01 09:20:11;;;;;;;1.08;0.40;;;;;;;16.78;71.27;101252.09;5008022;28;20129;-50
2023/05/01 09:22:37;;;;;;;0.32;0.20;;;;;;;16.76;72.08;101262.84;4977983;28;20046;-46
2023/05/01 09:25:05;;;;;;;2.72;0.30;;;;;;;17.89;70.33;101256.09;4999922;28;20050;-46
2023/05/01 09:27:36;;;;;;;1.83;0.35;;;;;;;19.00;68.29;101259.56;4992708;28;20137;-46
2023/05/01 09:30:05;;;;;;;1.98;0.65;;;;;;;19.99;65.96;101266.53;4995849;28;20175;-51
2023/05/01 09:32:32;;;;;;;2.15;0.60;;;;;;;20.40;64.28;101262.28;5006719;28;20140;-46
2023/05/01 09:35:13;;;;;;;3.05;0.70;;;;;;;20.70;64.01;101261.91;4993564;28;20050;-44
2023/05/01 09:37:40;;;;;;;0.90;0.50;;;;;;;20.66;62.59;101261.06;5002967;28;20046;-44
2023/05/01 09:40:12;;;;;;;1.75;0.50;;;;;;;20.58;62.24;101259.47;5002497;28;20042;-46
2023/05/01 09:42:50;;;;;;;1.13;0.52;;;;;;;20.61;61.57;101262.28;4998148;28;20057;-49
2023/05/01 09:45:18;;;;;;;0.52;0.30;;;;;;;21.27;59.68;101261.84;4983302;28;20133;-44
2023/05/01 09:47:45;;;;;;;1.80;0.30;;;;;;;21.85;57.76;101271.34;4987254;28;20046;-47
2023/05/01 09:50:34;;;;;;;1.05;0.38;;;;;;;22.39;57.65;101275.53;4992259;28;20115;-49
2023/05/01 09:53:03;;;;;;;1.25;0.30;;;;;;;22.69;55.56;101271.31;5000421;28;20050;-48
2023/05/01 09:55:33;;;;;;;1.67;0.60;;;;;;;22.43;55.64;101276.28;4996134;28;20408;-47
2023/05/01 09:57:59;;;;;;;2.70;0.40;;;;;;;22.52;55.32;101273.00;4997672;28;20050;-47
2023/05/01 10:00:26;;;;;;;0.85;0.50;;;;;;;22.50;54.10;101274.63;4997359;28;20056;-46
2023/05/01 10:02:53;;;;;;;1.63;0.70;;;;;;;21.81;54.34;101278.22;4993126;28;20057;-46
2023/05/01 10:05:21;;;;;;;1.63;0.40;;;;;;;21.26;55.23;101277.16;5006443;28;20545;-45
2023/05/01 10:08:01;;;;;;;2.67;0.43;;;;;;;20.99;56.63;101269.13;5004093;28;20410;-46
2023/05/01 10:10:28;;;;;;;2.70;0.68;;;;;;;21.06;55.05;101271.97;5005680;28;20050;-45
2023/05/01 10:12:55;;;;;;;1.52;0.40;;;;;;;20.87;55.03;101272.34;5008905;28;20046;-45
2023/05/01 10:15:35;;;;;;;0.82;0.22;;;;;;;21.15;55.33;101283.59;5008181;28;20478;-45
2023/05/01 10:18:03;;;;;;;1.02;0.63;;;;;;;21.15;54.29;101282.81;4997564;28;20050;-45
2023/05/01 10:20:31;;;;;;;1.50;0.40;;;;;;;21.12;55.21;101278.81;5000585;28;20045;-45
2023/05/01 10:22:59;;;;;;;1.40;0.45;;;;;;;21.00;54.68;101281.97;5010597;28;20053;-45
2023/05/01 10:25:26;;;;;;;1.85;0.73;;;;;;;21.04;54.90;101285.63;5009318;28;20057;-51
2023/05/01 10:27:54;;;;;;;1.58;0.28;;;;;;;21.13;54.00;101282.41;5010715;28;20060;-50
2023/05/01 10:30:21;;;;;;;3.33;0.55;;;;;;;20.84;54.36;101284.41;5010577;28;21322;-47
2023/05/01 10:32:48;;;;;;;3.00;0.43;;;;;;;20.99;54.23;101283.22;5006986;28;20065;-48
2023/05/01 10:35:22;;;;;;;7.20;0.85;;;;;;;21.00;54.23;101286.81;5010342;28;20085;-45
2023/05/01 10:38:00;;;;;;;2.53;0.68;;;;;;;20.87;53.92;101283.59;5010361;28;20064;-48
2023/05/01 10:40:42;;;;;;;1.73;0.40;;;;;;;20.13;54.48;101279.84;5006632;28;20537;-47
2023/05/01 10:43:19;;;;;;;1.33;0.45;;;;;;;19.56;55.57;101281.63;5008943;28;20054;-46
2023/05/01 10:45:48;;;;;;;1.90;0.47;;;;;;;18.91;56.20;101273.13;5008844;28;20060;-46
2023/05/01 10:48:42;;;;;;;0.30;0.30;;;;;;;18.34;57.54;101295.03;5009913;28;20046;-45
2023/05/01 10:51:13;;;;;;;3.15;0.65;;;;;;;17.98;58.26;101284.59;4970748;28;20053;-50
2023/05/01 10:53:45;;;;;;;1.95;0.57;;;;;;;17.72;58.87;101279.06;5008734;28;20038;-47
2023/05/01 10:56:22;;;;;;;;;;;;;;;17.86;59.65;101282.06;5006495;28;20065;-46
2023/05/01 10:58:52;;;;;;;1.67;0.45;;;;;;;18.18;59.35;101272.84;5009998;28;19925;-47
2023/05/01 11:01:41;;;;;;;0.40;0.30;;;;;;;18.22;58.95;101287.69;5007822;28;20402;-50
2023/05/01 11:04:23;;;;;;;1.90;0.70;;;;;;;18.03;59.18;101287.84;5006555;28;20069;-47
2023/05/01 11:07:06;;;;;;;2.55;0.40;;;;;;;17.71;59.42;101280.28;5008461;28;20050;-48
2023/05/01 11:09:56;;;;;;;2.25;1.30;;;;;;;17.45;59.61;101281.88;5006524;28;20084;-48
2023/05/01 11:12:45;;;;;;;1.42;0.28;;;;;;;17.30;60.41;101287.66;4999818;28;20125;-50
2023/05/01 11:15:28;;;;;;;1.23;0.50;;;;;;;17.21;60.42;101276.72;5009931;28;20529;-49
2023/05/01 11:17:55;;;;;;;16.23;1.60;;;;;;;17.17;60.82;101289.88;4989493;28;20052;-45
2023/05/01 11:20:24;;;;;;;2.78;0.40;;;;;;;17.19;60.51;101279.09;5005155;28;20048;-44
2023/05/01 11:22:53;;;;;;;1.88;0.32;;;;;;;17.27;60.45;101291.22;5009406;28;20039;-44
2023/05/01 11:25:22;;;;;;;0.77;0.52;;;;;;;17.33;60.42;101287.72;4998377;28;20049;-55
2023/05/01 11:27:51;;;;;;;2.03;0.50;;;;;;;17.34;60.41;101297.72;5017925;28;20057;-47
2023/05/01 11:30:19;;;;;;;2.22;1.50;;;;;;;17.39;60.29;101299.41;5010737;28;20049;-48
2023/05/01 11:32:48;;;;;;;0.73;0.60;;;;;;;17.36;60.52;101295.38;5009531;28;20395;-46
2023/05/01 11:35:17;;;;;;;3.75;1.00;;;;;;;17.27;61.08;101297.63;5010856;28;20041;-47